الصفحة الرئيسية
METAR-TAF:

METAR-TAF

مطار :

مطار أسوان الدولي

أسوان, مصر

دائرة عرض: 23-58N, خط طول: 032-47E, ارتفاع: 200 متر

مراقبة الطقس الحالي

تاريخ ووقت الإصدار 48 دقيقة قبل الساعة 12:00UTC
ريح 6 عقدة من الشمال/الشمال الشرقي
درجة الحرارة 22°درجة مئوية
الرطوبة 31%
ضغط 1020 hPa
الرؤية 10 كم أو أكثر
الغيوم لا تقل 1500 م ولا وجود لمزنة ركامية السحاب الأسود

METAR: HESN 131200Z 02006KT CAVOK 22/04 Q1020 NOSIG

زمن: 14:48 (12:48 UTC)

توقعات

تاريخ ووقت الإصدار 1ساعة و 48 دقيقة قبل الساعة 11:00UTC
التوقعات صالحة من13 الساعة 12 UTC إلى 14 الساعة 18 UTC
ريح 12 عقدة من الشمال
الرؤية 10 كم أو أكثر
الغيوم لا تقل 1500 م ولا وجود لمزنة ركامية السحاب الأسود

TAF: HESN 131100Z 1312/1418 01012KT CAVOK

أرصاد الطقس والتوقعات من أكثر من 4000 مطار (تقارير الطقس للمطار METAR والتنبؤ بالطقس بالمطارTAF).

المحطات المتاحة هي النقط الصفراء والحمراء على الخريطة.

حرك المؤشر فوق النقطة لمعرفة اسم المحطة.

ثم انقر لمعرفة أرصاد وتوقعات الطقس.

لتغيير الخارطة: اضغط على الأزرار الخضراء مع رمز الصليب الأسود للتكبير. على الزر الأخضر مع شرطة للتصغير، أو على الأسهم الخضراء للخرائط المجاورة.


METAR-TAF: